sensor_id;sensor_type;location;lat;lon;timestamp;pressure;altitude;pressure_sealevel;temperature;humidity
22862;BME280;11598;50.652;6.172;2024-01-25T00:04:00;97600.31;;;5.49;100.00
22862;BME280;11598;50.652;6.172;2024-01-25T00:14:00;97613.16;;;5.50;100.00
22862;BME280;11598;50.652;6.172;2024-01-25T00:24:01;97612.38;;;5.48;100.00
22862;BME280;11598;50.652;6.172;2024-01-25T00:34:02;97608.03;;;5.49;100.00
22862;BME280;11598;50.652;6.172;2024-01-25T00:44:02;97598.56;;;5.49;100.00
22862;BME280;11598;50.652;6.172;2024-01-25T00:54:03;97603.81;;;5.48;100.00
22862;BME280;11598;50.652;6.172;2024-01-25T01:04:04;97611.63;;;5.45;100.00
22862;BME280;11598;50.652;6.172;2024-01-25T01:14:04;97621.94;;;5.45;100.00
22862;BME280;11598;50.652;6.172;2024-01-25T01:24:04;97633.19;;;5.42;100.00
22862;BME280;11598;50.652;6.172;2024-01-25T01:34:05;97628.06;;;5.41;100.00
22862;BME280;11598;50.652;6.172;2024-01-25T01:44:05;97628.97;;;5.40;100.00
22862;BME280;11598;50.652;6.172;2024-01-25T01:54:07;97645.34;;;5.39;100.00
22862;BME280;11598;50.652;6.172;2024-01-25T02:04:07;97642.78;;;5.39;100.00
22862;BME280;11598;50.652;6.172;2024-01-25T02:14:08;97658.25;;;5.39;100.00
22862;BME280;11598;50.652;6.172;2024-01-25T02:24:11;97647.19;;;5.35;100.00
22862;BME280;11598;50.652;6.172;2024-01-25T02:34:12;97649.88;;;5.32;100.00
22862;BME280;11598;50.652;6.172;2024-01-25T02:44:13;97652.50;;;5.30;100.00
22862;BME280;11598;50.652;6.172;2024-01-25T02:54:13;97654.28;;;5.28;100.00
22862;BME280;11598;50.652;6.172;2024-01-25T03:04:13;97658.72;;;5.25;100.00
22862;BME280;11598;50.652;6.172;2024-01-25T03:14:14;97665.69;;;5.21;100.00
22862;BME280;11598;50.652;6.172;2024-01-25T03:24:14;97675.25;;;5.18;100.00
22862;BME280;11598;50.652;6.172;2024-01-25T03:34:15;97689.16;;;5.12;100.00
22862;BME280;11598;50.652;6.172;2024-01-25T03:44:15;97677.38;;;5.05;100.00
22862;BME280;11598;50.652;6.172;2024-01-25T03:54:16;97687.84;;;5.00;100.00
22862;BME280;11598;50.652;6.172;2024-01-25T04:04:16;97697.44;;;4.95;100.00
22862;BME280;11598;50.652;6.172;2024-01-25T04:14:17;97689.88;;;4.91;100.00
22862;BME280;11598;50.652;6.172;2024-01-25T04:24:17;97678.88;;;4.85;100.00
22862;BME280;11598;50.652;6.172;2024-01-25T04:34:17;97698.78;;;4.80;100.00
22862;BME280;11598;50.652;6.172;2024-01-25T04:44:18;97686.09;;;4.74;100.00
22862;BME280;11598;50.652;6.172;2024-01-25T04:54:18;97678.47;;;4.71;100.00
22862;BME280;11598;50.652;6.172;2024-01-25T05:04:18;97666.59;;;4.67;100.00
22862;BME280;11598;50.652;6.172;2024-01-25T05:14:19;97678.91;;;4.57;100.00
22862;BME280;11598;50.652;6.172;2024-01-25T05:24:19;97667.13;;;4.50;100.00
22862;BME280;11598;50.652;6.172;2024-01-25T05:34:20;97682.66;;;4.47;100.00
22862;BME280;11598;50.652;6.172;2024-01-25T05:44:20;97673.47;;;4.38;100.00
22862;BME280;11598;50.652;6.172;2024-01-25T05:54:20;97678.94;;;4.28;100.00
22862;BME280;11598;50.652;6.172;2024-01-25T06:04:21;97682.84;;;4.11;100.00
22862;BME280;11598;50.652;6.172;2024-01-25T06:14:21;97702.00;;;4.01;100.00
22862;BME280;11598;50.652;6.172;2024-01-25T06:24:21;97709.72;;;4.01;100.00
22862;BME280;11598;50.652;6.172;2024-01-25T06:34:22;97713.25;;;3.97;100.00
22862;BME280;11598;50.652;6.172;2024-01-25T06:44:22;97709.00;;;3.96;100.00
22862;BME280;11598;50.652;6.172;2024-01-25T06:54:22;97732.06;;;3.99;100.00
22862;BME280;11598;50.652;6.172;2024-01-25T07:04:23;97737.97;;;4.02;100.00
22862;BME280;11598;50.652;6.172;2024-01-25T07:14:23;97736.19;;;4.05;100.00
22862;BME280;11598;50.652;6.172;2024-01-25T07:24:24;97743.00;;;4.06;100.00
22862;BME280;11598;50.652;6.172;2024-01-25T07:34:26;97739.59;;;4.05;100.00
22862;BME280;11598;50.652;6.172;2024-01-25T07:44:26;97736.63;;;3.88;100.00
22862;BME280;11598;50.652;6.172;2024-01-25T07:54:27;97750.63;;;3.77;100.00
22862;BME280;11598;50.652;6.172;2024-01-25T08:04:27;97739.97;;;3.91;100.00
22862;BME280;11598;50.652;6.172;2024-01-25T08:14:27;97754.09;;;4.08;100.00
22862;BME280;11598;50.652;6.172;2024-01-25T08:24:28;97738.53;;;4.12;100.00
22862;BME280;11598;50.652;6.172;2024-01-25T08:34:28;97742.00;;;4.11;100.00
22862;BME280;11598;50.652;6.172;2024-01-25T08:44:28;97740.06;;;4.19;100.00
22862;BME280;11598;50.652;6.172;2024-01-25T08:54:29;97722.00;;;4.51;100.00
22862;BME280;11598;50.652;6.172;2024-01-25T09:04:29;97716.81;;;4.80;100.00
22862;BME280;11598;50.652;6.172;2024-01-25T09:14:29;97712.78;;;4.98;100.00
22862;BME280;11598;50.652;6.172;2024-01-25T09:24:32;97710.78;;;5.08;100.00
22862;BME280;11598;50.652;6.172;2024-01-25T09:34:38;97720.88;;;5.14;100.00
22862;BME280;11598;50.652;6.172;2024-01-25T09:44:39;97721.38;;;5.25;100.00
22862;BME280;11598;50.652;6.172;2024-01-25T09:54:40;97721.22;;;5.30;100.00
22862;BME280;11598;50.652;6.172;2024-01-25T10:04:40;97715.69;;;5.41;100.00
22862;BME280;11598;50.652;6.172;2024-01-25T10:14:41;97735.72;;;5.59;100.00
22862;BME280;11598;50.652;6.172;2024-01-25T10:24:41;97742.34;;;5.91;100.00
22862;BME280;11598;50.652;6.172;2024-01-25T10:34:43;97754.94;;;6.26;100.00
22862;BME280;11598;50.652;6.172;2024-01-25T10:44:45;97730.22;;;6.42;100.00
22862;BME280;11598;50.652;6.172;2024-01-25T10:54:46;97719.63;;;6.50;100.00
22862;BME280;11598;50.652;6.172;2024-01-25T11:04:55;97691.13;;;6.75;100.00
22862;BME280;11598;50.652;6.172;2024-01-25T11:14:56;97686.16;;;6.91;100.00
22862;BME280;11598;50.652;6.172;2024-01-25T11:24:56;97663.63;;;6.94;100.00
22862;BME280;11598;50.652;6.172;2024-01-25T11:34:59;97654.78;;;7.00;100.00
22862;BME280;11598;50.652;6.172;2024-01-25T11:45:00;97631.09;;;7.11;100.00
22862;BME280;11598;50.652;6.172;2024-01-25T11:55:05;97623.75;;;7.22;100.00
22862;BME280;11598;50.652;6.172;2024-01-25T12:05:06;97614.94;;;7.26;100.00
22862;BME280;11598;50.652;6.172;2024-01-25T12:15:07;97617.50;;;7.26;100.00
22862;BME280;11598;50.652;6.172;2024-01-25T12:25:09;97611.66;;;7.23;100.00
22862;BME280;11598;50.652;6.172;2024-01-25T12:35:13;97606.19;;;7.29;100.00
22862;BME280;11598;50.652;6.172;2024-01-25T12:45:13;97613.38;;;7.43;100.00
22862;BME280;11598;50.652;6.172;2024-01-25T12:55:14;97606.19;;;7.49;100.00
22862;BME280;11598;50.652;6.172;2024-01-25T13:05:14;97604.13;;;7.57;100.00
22862;BME280;11598;50.652;6.172;2024-01-25T13:15:15;97608.31;;;7.60;100.00
22862;BME280;11598;50.652;6.172;2024-01-25T13:25:15;97582.47;;;7.60;100.00
22862;BME280;11598;50.652;6.172;2024-01-25T13:35:16;97566.16;;;7.58;100.00
22862;BME280;11598;50.652;6.172;2024-01-25T13:45:16;97562.78;;;7.37;100.00
22862;BME280;11598;50.652;6.172;2024-01-25T13:55:17;97557.31;;;7.04;100.00
22862;BME280;11598;50.652;6.172;2024-01-25T14:05:17;97543.56;;;6.83;100.00
22862;BME280;11598;50.652;6.172;2024-01-25T14:15:18;97529.66;;;6.65;100.00
22862;BME280;11598;50.652;6.172;2024-01-25T14:25:18;97517.97;;;6.56;100.00
22862;BME280;11598;50.652;6.172;2024-01-25T14:35:18;97495.78;;;6.52;100.00
22862;BME280;11598;50.652;6.172;2024-01-25T14:45:19;97483.13;;;6.46;100.00
22862;BME280;11598;50.652;6.172;2024-01-25T14:55:19;97487.31;;;6.48;100.00
22862;BME280;11598;50.652;6.172;2024-01-25T15:05:20;97475.44;;;6.44;100.00
22862;BME280;11598;50.652;6.172;2024-01-25T15:15:20;97454.09;;;6.41;100.00
22862;BME280;11598;50.652;6.172;2024-01-25T15:25:21;97438.72;;;6.38;100.00
22862;BME280;11598;50.652;6.172;2024-01-25T15:35:21;97446.66;;;6.33;100.00
22862;BME280;11598;50.652;6.172;2024-01-25T15:45:21;97445.88;;;6.31;100.00
22862;BME280;11598;50.652;6.172;2024-01-25T15:55:22;97440.81;;;6.28;100.00
22862;BME280;11598;50.652;6.172;2024-01-25T16:05:22;97436.53;;;6.28;100.00
22862;BME280;11598;50.652;6.172;2024-01-25T16:15:23;97433.22;;;6.25;100.00
22862;BME280;11598;50.652;6.172;2024-01-25T16:25:25;97431.75;;;6.19;100.00
22862;BME280;11598;50.652;6.172;2024-01-25T16:35:25;97421.47;;;6.18;100.00
22862;BME280;11598;50.652;6.172;2024-01-25T16:45:26;97436.81;;;6.21;100.00
22862;BME280;11598;50.652;6.172;2024-01-25T16:55:26;97431.41;;;6.27;100.00
22862;BME280;11598;50.652;6.172;2024-01-25T17:05:26;97424.47;;;6.29;100.00
22862;BME280;11598;50.652;6.172;2024-01-25T17:15:27;97436.34;;;6.33;100.00
22862;BME280;11598;50.652;6.172;2024-01-25T17:25:27;97431.88;;;6.37;100.00
22862;BME280;11598;50.652;6.172;2024-01-25T17:35:27;97427.50;;;6.39;100.00
22862;BME280;11598;50.652;6.172;2024-01-25T17:45:28;97429.25;;;6.38;100.00
22862;BME280;11598;50.652;6.172;2024-01-25T17:55:29;97430.72;;;6.44;100.00
22862;BME280;11598;50.652;6.172;2024-01-25T18:05:30;97438.41;;;6.45;100.00
22862;BME280;11598;50.652;6.172;2024-01-25T18:15:30;97416.78;;;6.48;100.00
22862;BME280;11598;50.652;6.172;2024-01-25T18:25:31;97414.97;;;6.50;100.00
22862;BME280;11598;50.652;6.172;2024-01-25T18:35:31;97423.50;;;6.52;100.00
22862;BME280;11598;50.652;6.172;2024-01-25T18:45:31;97423.34;;;6.55;100.00
22862;BME280;11598;50.652;6.172;2024-01-25T18:55:32;97427.53;;;6.57;100.00
22862;BME280;11598;50.652;6.172;2024-01-25T19:05:32;97423.31;;;6.56;100.00
22862;BME280;11598;50.652;6.172;2024-01-25T19:15:33;97415.47;;;6.58;100.00
22862;BME280;11598;50.652;6.172;2024-01-25T19:25:33;97399.09;;;6.59;100.00
22862;BME280;11598;50.652;6.172;2024-01-25T19:35:34;97394.72;;;6.61;100.00
22862;BME280;11598;50.652;6.172;2024-01-25T19:45:35;97395.38;;;6.65;100.00
22862;BME280;11598;50.652;6.172;2024-01-25T19:55:35;97384.91;;;6.68;100.00
22862;BME280;11598;50.652;6.172;2024-01-25T20:05:36;97371.94;;;6.69;100.00
22862;BME280;11598;50.652;6.172;2024-01-25T20:15:37;97364.06;;;6.72;100.00
22862;BME280;11598;50.652;6.172;2024-01-25T20:25:37;97350.19;;;6.75;100.00
22862;BME280;11598;50.652;6.172;2024-01-25T20:35:37;97345.78;;;6.77;100.00
22862;BME280;11598;50.652;6.172;2024-01-25T20:45:39;97335.25;;;6.82;100.00
22862;BME280;11598;50.652;6.172;2024-01-25T20:55:39;97335.19;;;6.83;100.00
22862;BME280;11598;50.652;6.172;2024-01-25T21:05:40;97347.94;;;6.86;100.00
22862;BME280;11598;50.652;6.172;2024-01-25T21:15:40;97340.28;;;6.85;100.00
22862;BME280;11598;50.652;6.172;2024-01-25T21:25:41;97332.44;;;6.86;100.00
22862;BME280;11598;50.652;6.172;2024-01-25T21:35:41;97317.81;;;6.87;100.00
22862;BME280;11598;50.652;6.172;2024-01-25T21:45:41;97313.47;;;6.87;100.00
22862;BME280;11598;50.652;6.172;2024-01-25T21:55:42;97309.16;;;6.88;100.00
22862;BME280;11598;50.652;6.172;2024-01-25T22:05:42;97289.25;;;6.90;100.00
22862;BME280;11598;50.652;6.172;2024-01-25T22:15:42;97295.19;;;6.92;100.00
22862;BME280;11598;50.652;6.172;2024-01-25T22:25:43;97304.38;;;6.97;100.00
22862;BME280;11598;50.652;6.172;2024-01-25T22:35:43;97287.00;;;7.01;100.00
22862;BME280;11598;50.652;6.172;2024-01-25T22:45:44;97283.34;;;7.05;100.00
22862;BME280;11598;50.652;6.172;2024-01-25T22:55:44;97288.47;;;7.07;100.00
22862;BME280;11598;50.652;6.172;2024-01-25T23:05:45;97288.31;;;7.10;100.00
22862;BME280;11598;50.652;6.172;2024-01-25T23:15:45;97297.66;;;7.12;100.00
22862;BME280;11598;50.652;6.172;2024-01-25T23:25:46;97284.69;;;7.14;100.00
22862;BME280;11598;50.652;6.172;2024-01-25T23:35:47;97278.53;;;7.16;100.00
22862;BME280;11598;50.652;6.172;2024-01-25T23:45:47;97274.19;;;7.17;100.00
22862;BME280;11598;50.652;6.172;2024-01-25T23:55:48;97277.53;;;7.19;100.00
